Time;durP1;ratioP1;P1;durP2;ratioP2;P2;SDS_P1;SDS_P2;PMS_P1;PMS_P2;Temp;Humidity;BMP_temperature;BMP_pressure;BME280_temperature;BME280_humidity;BME280_pressure;Samples;Min_cycle;Max_cycle;Signal;HPM_P1;HPM_P2
2021/06/14 00:01:04;;;;;;;11.02;5.05;;;14.10;82.80;;;;;;5095307;28;20028;-67
2021/06/14 00:03:29;;;;;;;11.10;5.70;;;14.10;82.90;;;;;;5095266;28;20032;-67
2021/06/14 00:05:55;;;;;;;10.95;5.72;;;14.00;83.10;;;;;;5095227;28;20063;-67
2021/06/14 00:08:22;;;;;;;13.32;4.95;;;14.00;83.30;;;;;;5094047;28;20024;-67
2021/06/14 00:10:50;;;;;;;11.93;5.90;;;14.00;83.60;;;;;;5093878;28;20493;-67
2021/06/14 00:13:16;;;;;;;9.52;5.78;;;13.90;83.90;;;;;;5076966;28;20478;-67
2021/06/14 00:15:44;;;;;;;12.82;6.93;;;13.90;84.20;;;;;;5095115;28;20031;-67
2021/06/14 00:18:10;;;;;;;13.13;6.95;;;13.90;84.50;;;;;;5094852;28;20032;-66
2021/06/14 00:20:37;;;;;;;13.82;6.93;;;13.80;84.70;;;;;;5095033;28;20035;-66
2021/06/14 00:23:08;;;;;;;13.38;6.85;;;13.80;84.80;;;;;;5095057;28;20111;-67
2021/06/14 00:25:34;;;;;;;13.60;5.90;;;13.90;85.00;;;;;;5095094;28;20020;-66
2021/06/14 00:28:01;;;;;;;10.95;6.60;;;13.80;85.10;;;;;;5094758;28;20047;-67
2021/06/14 00:30:35;;;;;;;15.43;6.93;;;13.80;85.20;;;;;;5094636;28;20032;-66
2021/06/14 00:33:00;;;;;;;16.60;7.18;;;13.80;85.50;;;;;;5094358;28;20012;-66
2021/06/14 00:35:26;;;;;;;11.07;6.63;;;13.70;85.60;;;;;;5094717;28;20042;-66
2021/06/14 00:37:52;;;;;;;11.50;6.32;;;13.70;85.80;;;;;;5094762;28;20055;-66
2021/06/14 00:40:18;;;;;;;12.55;6.90;;;13.70;86.10;;;;;;5094599;28;20063;-66
2021/06/14 00:42:44;;;;;;;14.82;7.45;;;13.60;86.30;;;;;;5094642;28;20107;-66
2021/06/14 00:45:15;;;;;;;17.00;7.30;;;13.60;86.50;;;;;;5094302;28;20020;-67
2021/06/14 00:47:41;;;;;;;16.58;7.95;;;13.60;86.70;;;;;;5094874;28;20059;-67
2021/06/14 00:50:07;;;;;;;16.10;7.90;;;13.60;86.90;;;;;;5094306;28;20056;-66
2021/06/14 00:52:33;;;;;;;14.52;8.63;;;13.50;87.10;;;;;;5094588;28;20032;-66
2021/06/14 00:54:59;;;;;;;13.65;7.88;;;13.50;87.30;;;;;;5094083;28;20444;-66
2021/06/14 00:57:24;;;;;;;16.60;9.02;;;13.40;87.40;;;;;;5094365;28;20437;-66
2021/06/14 00:59:50;;;;;;;17.33;8.85;;;13.40;87.60;;;;;;5094076;28;20513;-67
2021/06/14 01:02:16;;;;;;;13.32;9.45;;;13.40;87.90;;;;;;5094337;28;20070;-66
2021/06/14 01:04:41;;;;;;;19.02;8.63;;;13.30;88.10;;;;;;5094260;28;20024;-66
2021/06/14 01:07:07;;;;;;;16.38;9.57;;;13.30;88.30;;;;;;5094054;28;20513;-66
2021/06/14 01:09:32;;;;;;;16.75;9.73;;;13.30;88.50;;;;;;5093978;28;20031;-66
2021/06/14 01:12:07;;;;;;;16.88;9.20;;;13.30;88.70;;;;;;5093938;28;20039;-66
2021/06/14 01:14:41;;;;;;;15.10;9.55;;;13.30;88.90;;;;;;5093751;28;20020;-66
2021/06/14 01:17:18;;;;;;;20.90;10.57;;;13.20;89.10;;;;;;5093830;28;20026;-66
2021/06/14 01:19:59;;;;;;;13.13;8.35;;;13.20;89.30;;;;;;5093972;28;20028;-67
2021/06/14 01:22:24;;;;;;;14.40;8.93;;;13.20;89.40;;;;;;5093720;28;20024;-66
2021/06/14 01:25:34;;;;;;;14.88;9.32;;;13.20;89.60;;;;;;5093802;28;20515;-67
2021/06/14 01:28:01;;;;;;;14.88;10.13;;;13.10;89.70;;;;;;5048589;28;20115;-66
2021/06/14 01:30:31;;;;;;;18.20;10.75;;;13.00;89.80;;;;;;5093702;28;20027;-66
2021/06/14 01:32:57;;;;;;;18.63;11.98;;;13.00;90.00;;;;;;5093528;28;20016;-66
2021/06/14 01:35:30;;;;;;;17.10;11.20;;;13.10;90.10;;;;;;5093363;28;20502;-67
2021/06/14 01:37:58;;;;;;;14.45;8.68;;;13.00;90.10;;;;;;5093511;28;20026;-66
2021/06/14 01:40:25;;;;;;;19.80;10.43;;;13.00;90.10;;;;;;5093433;28;20024;-66
2021/06/14 01:42:53;;;;;;;18.73;9.77;;;12.90;90.20;;;;;;5093551;28;20449;-66
2021/06/14 01:45:22;;;;;;;16.23;9.05;;;12.90;90.30;;;;;;5092503;28;20032;-66
2021/06/14 01:47:47;;;;;;;13.57;9.13;;;12.90;90.40;;;;;;5093398;28;20028;-66
2021/06/14 01:50:14;;;;;;;17.27;9.63;;;12.80;90.50;;;;;;5093120;28;20479;-67
2021/06/14 01:52:40;;;;;;;16.50;10.15;;;12.80;90.60;;;;;;5093551;28;20047;-66
2021/06/14 01:55:08;;;;;;;18.77;12.07;;;12.70;90.60;;;;;;5092996;28;20078;-66
2021/06/14 01:57:34;;;;;;;19.98;11.32;;;12.70;90.80;;;;;;5093124;28;20474;-66
2021/06/14 02:00:00;;;;;;;18.60;12.35;;;12.70;90.80;;;;;;5093152;28;20028;-66
2021/06/14 02:02:28;;;;;;;19.42;13.02;;;12.60;90.90;;;;;;5074986;28;20039;-66
2021/06/14 02:04:55;;;;;;;17.13;11.82;;;12.60;91.00;;;;;;5093010;28;20064;-66
2021/06/14 02:07:20;;;;;;;24.98;12.85;;;12.60;91.10;;;;;;5093112;28;20032;-66
2021/06/14 02:09:46;;;;;;;17.67;11.10;;;12.60;91.20;;;;;;5074685;28;20075;-66
2021/06/14 02:12:12;;;;;;;20.50;11.70;;;12.50;91.40;;;;;;5093226;28;20386;-66
2021/06/14 02:14:41;;;;;;;15.32;8.98;;;12.50;91.30;;;;;;5074687;28;20103;-66
2021/06/14 02:17:11;;;;;;;13.65;9.13;;;12.50;91.30;;;;;;5092876;28;20166;-66
2021/06/14 02:19:38;;;;;;;17.92;9.93;;;12.50;91.40;;;;;;5092844;28;20035;-66
2021/06/14 02:22:04;;;;;;;17.13;10.48;;;12.40;91.50;;;;;;5092911;28;20048;-66
2021/06/14 02:24:32;;;;;;;20.40;11.80;;;12.40;91.50;;;;;;5092687;28;20068;-66
2021/06/14 02:26:59;;;;;;;18.33;10.50;;;12.40;91.70;;;;;;5092815;28;20048;-66
2021/06/14 02:29:24;;;;;;;15.57;9.90;;;12.40;91.70;;;;;;5092671;28;20035;-66
2021/06/14 02:31:50;;;;;;;18.08;9.80;;;12.30;91.70;;;;;;5091227;28;20012;-66
2021/06/14 02:34:17;;;;;;;15.90;9.20;;;12.30;91.70;;;;;;5092731;28;20032;-66
2021/06/14 02:36:43;;;;;;;16.95;10.80;;;12.30;91.80;;;;;;5092719;28;20012;-66
2021/06/14 02:39:12;;;;;;;17.55;10.02;;;12.20;91.80;;;;;;5092612;28;20541;-66
2021/06/14 02:41:39;;;;;;;18.77;10.63;;;12.20;91.90;;;;;;5092897;28;20398;-66
2021/06/14 02:44:06;;;;;;;14.50;8.55;;;12.20;92.00;;;;;;5074516;28;20059;-66
2021/06/14 02:46:38;;;;;;;17.08;9.25;;;12.20;92.10;;;;;;5092466;28;20017;-66
2021/06/14 02:49:04;;;;;;;17.50;8.25;;;12.20;92.10;;;;;;5092465;28;20020;-66
2021/06/14 02:51:31;;;;;;;10.75;6.97;;;12.20;92.10;;;;;;5092659;28;20028;-66
2021/06/14 02:54:03;;;;;;;12.95;7.93;;;12.20;92.10;;;;;;5092515;28;20043;-66
2021/06/14 02:56:35;;;;;;;12.85;7.82;;;12.10;92.10;;;;;;5093857;28;20043;-66
2021/06/14 02:59:06;;;;;;;9.90;6.47;;;12.10;92.00;;;;;;5096510;28;20028;-66
2021/06/14 03:01:32;;;;;;;12.77;6.97;;;12.20;92.00;;;;;;5096601;28;20466;-66
2021/06/14 03:04:00;;;;;;;13.88;7.28;;;12.10;92.00;;;;;;5096553;28;20060;-66
2021/06/14 03:06:27;;;;;;;15.45;7.05;;;12.10;92.00;;;;;;5096252;28;20024;-66
2021/06/14 03:08:54;;;;;;;14.27;7.45;;;12.10;92.00;;;;;;5096470;28;20016;-66
2021/06/14 03:11:28;;;;;;;12.30;6.88;;;12.10;92.00;;;;;;5096228;28;20034;-66
2021/06/14 03:13:56;;;;;;;15.85;7.70;;;12.10;92.00;;;;;;5096242;28;20024;-66
2021/06/14 03:16:24;;;;;;;12.95;7.13;;;12.10;92.10;;;;;;5096430;28;20020;-66
2021/06/14 03:18:51;;;;;;;11.40;6.45;;;12.10;92.10;;;;;;5096150;28;20021;-66
2021/06/14 03:21:18;;;;;;;13.77;6.85;;;12.10;92.10;;;;;;5096337;28;20024;-66
2021/06/14 03:23:43;;;;;;;13.82;6.93;;;12.10;92.10;;;;;;5095869;28;20346;-66
2021/06/14 03:26:13;;;;;;;12.32;7.03;;;12.10;92.10;;;;;;5096075;28;20028;-66
2021/06/14 03:28:41;;;;;;;14.68;7.47;;;12.10;92.10;;;;;;5096116;28;20020;-66
2021/06/14 03:31:08;;;;;;;12.32;6.93;;;12.10;92.00;;;;;;5095862;28;20471;-66
2021/06/14 03:33:34;;;;;;;13.77;7.75;;;12.10;92.00;;;;;;5095898;28;20021;-66
2021/06/14 03:36:00;;;;;;;19.50;8.63;;;12.00;92.00;;;;;;5095883;28;20394;-66
2021/06/14 03:38:25;;;;;;;12.85;7.00;;;12.10;92.10;;;;;;5095888;28;20028;-66
2021/06/14 03:40:51;;;;;;;16.60;7.38;;;12.00;92.10;;;;;;5096098;28;20077;-66
2021/06/14 03:43:17;;;;;;;13.80;7.10;;;12.00;92.20;;;;;;5095841;28;20031;-66
2021/06/14 03:45:43;;;;;;;15.48;7.15;;;12.00;92.20;;;;;;5095803;28;20331;-66
2021/06/14 03:48:08;;;;;;;13.65;7.50;;;12.00;92.20;;;;;;5095693;28;20035;-66
2021/06/14 03:50:34;;;;;;;13.32;7.35;;;12.00;92.20;;;;;;5095765;28;20032;-66
2021/06/14 03:53:02;;;;;;;17.98;8.13;;;12.00;92.20;;;;;;5095471;28;20383;-66
2021/06/14 03:55:28;;;;;;;13.23;7.50;;;12.00;92.20;;;;;;5095219;28;20036;-66
2021/06/14 03:57:54;;;;;;;12.60;6.65;;;12.00;92.20;;;;;;5095506;28;20024;-66
2021/06/14 04:00:20;;;;;;;14.77;7.28;;;12.00;92.20;;;;;;5095043;28;20032;-66
2021/06/14 04:02:46;;;;;;;11.13;6.80;;;12.10;92.20;;;;;;5095607;28;20376;-66
2021/06/14 04:05:12;;;;;;;9.55;6.15;;;12.10;92.20;;;;;;5095203;28;20038;-66
2021/06/14 04:07:37;;;;;;;15.73;7.45;;;12.10;92.20;;;;;;5094536;28;20478;-66
2021/06/14 04:10:05;;;;;;;11.38;6.28;;;12.10;92.20;;;;;;5094667;28;20024;-66
2021/06/14 04:12:31;;;;;;;12.75;6.65;;;12.20;92.20;;;;;;5095421;28;20089;-65
2021/06/14 04:14:57;;;;;;;15.57;6.72;;;12.20;92.20;;;;;;5095186;28;20450;-66
2021/06/14 04:17:23;;;;;;;14.10;8.38;;;12.20;92.10;;;;;;5095230;28;20016;-66
2021/06/14 04:19:49;;;;;;;11.15;7.18;;;12.30;92.10;;;;;;5095370;28;20561;-66
2021/06/14 04:22:15;;;;;;;12.60;7.07;;;12.30;92.00;;;;;;5078194;28;20028;-66
2021/06/14 04:24:42;;;;;;;11.80;6.40;;;12.40;92.00;;;;;;5094705;28;20024;-66
2021/06/14 04:27:08;;;;;;;10.57;6.38;;;12.50;91.90;;;;;;5094909;28;20036;-66
2021/06/14 04:29:34;;;;;;;12.75;6.75;;;12.50;91.80;;;;;;5094819;28;20473;-66
2021/06/14 04:32:00;;;;;;;11.45;6.30;;;12.60;91.70;;;;;;5095127;28;20032;-66
2021/06/14 04:34:26;;;;;;;11.90;6.97;;;12.70;91.70;;;;;;5094929;28;20032;-66
2021/06/14 04:36:52;;;;;;;15.40;7.72;;;12.80;91.60;;;;;;5094555;28;20020;-66
2021/06/14 04:39:18;;;;;;;14.00;7.00;;;12.80;91.50;;;;;;5094676;28;20104;-66
2021/06/14 04:41:43;;;;;;;11.65;6.90;;;12.90;91.40;;;;;;5094605;28;20031;-66
2021/06/14 04:44:09;;;;;;;13.57;7.05;;;13.00;91.30;;;;;;5094647;28;20017;-66
2021/06/14 04:46:34;;;;;;;15.80;7.57;;;13.00;91.20;;;;;;5094481;28;20354;-66
2021/06/14 04:49:00;;;;;;;12.95;8.10;;;13.20;91.20;;;;;;5094613;28;20462;-66
2021/06/14 04:51:26;;;;;;;12.45;6.22;;;13.30;91.20;;;;;;5094516;28;20147;-66
2021/06/14 04:53:52;;;;;;;12.40;5.78;;;13.50;91.60;;;;;;5076285;28;20043;-66
2021/06/14 04:56:17;;;;;;;12.05;6.53;;;13.90;91.80;;;;;;5094148;28;20028;-66
2021/06/14 04:58:43;;;;;;;12.30;5.60;;;14.40;91.80;;;;;;5093098;28;20028;-66
2021/06/14 05:01:09;;;;;;;8.75;5.20;;;14.90;91.70;;;;;;5094119;28;20013;-66
2021/06/14 05:03:35;;;;;;;7.93;4.60;;;15.50;91.30;;;;;;5094358;28;20020;-66
2021/06/14 05:06:00;;;;;;;9.73;5.60;;;16.10;90.80;;;;;;5094279;28;20093;-66
2021/06/14 05:08:26;;;;;;;10.07;5.68;;;16.60;90.00;;;;;;5094625;28;20073;-66
2021/06/14 05:10:52;;;;;;;9.30;5.60;;;17.20;88.40;;;;;;5093801;28;20052;-66
2021/06/14 05:13:17;;;;;;;12.10;5.38;;;17.70;86.50;;;;;;5094073;28;20052;-66
2021/06/14 05:15:43;;;;;;;8.07;5.38;;;18.20;84.70;;;;;;5075748;28;20058;-66
2021/06/14 05:18:09;;;;;;;8.15;5.00;;;18.60;82.90;;;;;;5093964;28;20352;-66
2021/06/14 05:20:35;;;;;;;10.65;5.40;;;19.00;81.20;;;;;;5093344;28;20028;-66
2021/06/14 05:23:03;;;;;;;8.52;4.13;;;19.30;79.80;;;;;;5093853;28;20107;-66
2021/06/14 05:25:29;;;;;;;8.93;3.90;;;19.50;79.80;;;;;;5093482;28;20482;-66
2021/06/14 05:27:55;;;;;;;11.52;4.28;;;19.70;78.70;;;;;;5093775;28;20052;-66
2021/06/14 05:30:20;;;;;;;9.32;5.18;;;20.00;77.30;;;;;;5093796;28;20451;-66
2021/06/14 05:32:46;;;;;;;7.13;4.68;;;20.30;75.70;;;;;;5093956;28;20066;-66
2021/06/14 05:35:12;;;;;;;11.23;5.28;;;20.70;73.80;;;;;;5093890;28;20036;-66
2021/06/14 05:37:38;;;;;;;10.27;4.85;;;21.10;72.00;;;;;;5092130;28;20024;-66
2021/06/14 05:40:06;;;;;;;7.50;4.72;;;21.30;70.50;;;;;;5093374;28;20028;-66
2021/06/14 05:42:32;;;;;;;9.10;5.18;;;21.30;69.40;;;;;;5093772;28;20107;-66
2021/06/14 05:44:58;;;;;;;8.80;5.28;;;21.40;68.30;;;;;;5093521;28;20028;-66
2021/06/14 05:47:23;;;;;;;7.68;4.38;;;21.50;67.50;;;;;;5093632;28;20051;-66
2021/06/14 05:49:49;;;;;;;11.90;5.57;;;21.60;66.90;;;;;;5091914;28;20051;-66
2021/06/14 05:52:15;;;;;;;10.25;4.97;;;21.70;65.90;;;;;;5093300;28;20047;-66
2021/06/14 05:54:40;;;;;;;8.90;5.47;;;21.60;65.30;;;;;;5092672;28;20127;-67
2021/06/14 05:57:07;;;;;;;9.02;5.30;;;21.60;64.20;;;;;;5092066;28;20085;-66
2021/06/14 05:59:32;;;;;;;8.90;5.40;;;21.50;63.30;;;;;;5093083;28;20099;-66
2021/06/14 06:01:58;;;;;;;7.22;5.30;;;21.40;63.20;;;;;;5093218;28;20116;-66
2021/06/14 06:04:23;;;;;;;10.25;6.20;;;21.40;63.30;;;;;;5092952;28;20024;-67
2021/06/14 06:06:49;;;;;;;11.27;5.72;;;21.30;62.90;;;;;;5092924;28;20497;-66
2021/06/14 06:09:14;;;;;;;9.70;5.25;;;21.30;62.40;;;;;;5092672;28;20099;-66
2021/06/14 06:11:40;;;;;;;11.35;5.53;;;21.30;61.80;;;;;;5092900;28;20024;-66
2021/06/14 06:14:06;;;;;;;10.82;5.75;;;21.20;61.30;;;;;;5092777;28;20031;-66
2021/06/14 06:16:32;;;;;;;9.32;6.10;;;21.10;61.10;;;;;;5093442;28;20024;-66
2021/06/14 06:18:57;;;;;;;9.52;5.88;;;21.10;61.30;;;;;;5092690;28;20050;-67
2021/06/14 06:21:23;;;;;;;11.25;6.00;;;21.20;61.40;;;;;;5093244;28;20024;-67
2021/06/14 06:23:48;;;;;;;11.48;6.65;;;21.20;61.70;;;;;;5092556;28;20028;-66
2021/06/14 06:26:14;;;;;;;9.10;6.05;;;21.10;61.60;;;;;;5074623;28;20031;-66
2021/06/14 06:28:39;;;;;;;12.15;6.15;;;21.20;61.60;;;;;;5092855;28;20040;-66
2021/06/14 06:31:05;;;;;;;11.50;6.60;;;21.20;62.10;;;;;;5090653;28;20028;-66
2021/06/14 06:33:31;;;;;;;12.45;6.68;;;21.20;62.40;;;;;;5092720;28;20385;-66
2021/06/14 06:35:56;;;;;;;12.38;6.50;;;21.20;62.10;;;;;;5092549;28;20047;-66
2021/06/14 06:38:22;;;;;;;9.95;5.93;;;21.30;61.80;;;;;;5092652;28;20436;-67
2021/06/14 06:40:47;;;;;;;9.15;5.53;;;21.30;61.30;;;;;;5092294;28;20078;-66
2021/06/14 06:43:13;;;;;;;11.63;6.07;;;21.40;61.20;;;;;;5092531;28;20032;-66
2021/06/14 06:45:39;;;;;;;10.10;5.68;;;21.50;61.10;;;;;;5092396;28;20101;-66
2021/06/14 06:48:04;;;;;;;8.85;4.93;;;21.50;60.60;;;;;;5092558;28;20024;-66
2021/06/14 06:50:30;;;;;;;9.25;6.30;;;21.60;60.30;;;;;;5092608;28;20050;-66
2021/06/14 06:52:58;;;;;;;8.82;5.20;;;21.60;60.40;;;;;;5092516;28;20084;-67
2021/06/14 06:55:24;;;;;;;9.98;5.95;;;21.60;60.30;;;;;;5092175;28;20134;-66
2021/06/14 06:57:49;;;;;;;11.07;6.00;;;21.70;60.30;;;;;;5092407;28;20099;-66
2021/06/14 07:00:18;;;;;;;12.40;6.40;;;21.70;60.70;;;;;;5092439;28;20032;-66
2021/06/14 07:02:44;;;;;;;14.20;6.40;;;21.70;60.50;;;;;;5092931;28;20024;-66
2021/06/14 07:05:10;;;;;;;11.90;5.78;;;21.80;60.60;;;;;;5091140;28;20074;-66
2021/06/14 07:07:36;;;;;;;12.63;6.38;;;21.90;60.00;;;;;;5092343;28;20111;-66
2021/06/14 07:10:04;;;;;;;10.95;7.03;;;21.90;60.90;;;;;;5092139;28;20111;-66
2021/06/14 07:12:34;;;;;;;13.02;7.38;;;22.00;60.00;;;;;;5092273;28;20020;-66
2021/06/14 07:15:00;;;;;;;9.25;5.78;;;22.10;59.50;;;;;;5092231;28;20020;-66
2021/06/14 07:17:26;;;;;;;13.48;6.85;;;22.10;59.50;;;;;;5092136;28;20066;-66
2021/06/14 07:19:52;;;;;;;13.35;6.25;;;22.10;59.80;;;;;;5092405;28;20028;-66
2021/06/14 07:22:17;;;;;;;12.57;6.57;;;22.30;59.50;;;;;;5092222;28;20024;-66
2021/06/14 07:24:43;;;;;;;14.65;6.63;;;22.30;59.00;;;;;;5091977;28;20036;-66
2021/06/14 07:27:09;;;;;;;13.23;6.03;;;22.30;59.00;;;;;;5090952;28;20031;-66
2021/06/14 07:29:34;;;;;;;13.40;6.57;;;22.40;58.70;;;;;;5092007;28;20016;-66
2021/06/14 07:32:00;;;;;;;9.98;6.47;;;22.50;58.70;;;;;;5092361;28;20020;-66
2021/06/14 07:34:26;;;;;;;13.85;7.53;;;22.70;59.20;;;;;;5092338;28;20101;-66
2021/06/14 07:36:52;;;;;;;13.23;7.32;;;22.80;58.50;;;;;;5091970;28;20024;-66
2021/06/14 07:39:18;;;;;;;12.93;7.32;;;22.80;58.70;;;;;;5091886;28;20028;-66
2021/06/14 07:41:43;;;;;;;11.15;6.47;;;22.90;58.30;;;;;;5091823;28;20097;-66
2021/06/14 07:44:09;;;;;;;11.20;5.90;;;22.90;58.50;;;;;;5094353;28;20519;-66
2021/06/14 07:46:35;;;;;;;11.52;6.00;;;23.10;57.60;;;;;;5095617;28;20024;-66
2021/06/14 07:49:01;;;;;;;11.20;6.47;;;23.10;57.40;;;;;;5077582;28;20020;-66
2021/06/14 07:51:29;;;;;;;10.68;6.70;;;23.10;57.20;;;;;;5095542;28;20077;-66
2021/06/14 07:53:54;;;;;;;14.80;7.50;;;23.20;57.90;;;;;;5076958;28;20044;-66
2021/06/14 07:56:20;;;;;;;11.90;7.50;;;23.30;57.60;;;;;;5095610;28;20453;-66
2021/06/14 07:58:47;;;;;;;12.60;6.63;;;23.30;57.00;;;;;;5077448;28;20111;-66
2021/06/14 08:01:13;;;;;;;15.38;6.45;;;23.30;56.60;;;;;;5094061;28;20415;-66
2021/06/14 08:03:39;;;;;;;10.82;7.13;;;23.30;56.00;;;;;;5095540;28;20024;-66
2021/06/14 08:06:05;;;;;;;12.75;7.97;;;23.30;55.90;;;;;;5095399;28;20028;-66
2021/06/14 08:08:31;;;;;;;14.25;7.13;;;23.40;56.10;;;;;;5095080;28;20024;-66
2021/06/14 08:10:57;;;;;;;13.10;6.38;;;23.50;56.30;;;;;;5095431;28;20047;-66
2021/06/14 08:13:23;;;;;;;11.20;6.88;;;23.60;55.90;;;;;;5095260;28;20107;-66
2021/06/14 08:15:49;;;;;;;14.82;8.00;;;23.70;55.20;;;;;;5095179;28;20052;-66
2021/06/14 08:20:51;;;;;;;15.57;7.78;;;23.90;54.70;;;;;;5095203;28;20028;-66
2021/06/14 08:26:02;;;;;;;15.15;7.40;;;24.00;53.80;;;;;;5095205;28;20346;-66
2021/06/14 08:28:27;;;;;;;13.07;7.68;;;24.10;53.70;;;;;;5094924;28;20028;-66
2021/06/14 08:30:53;;;;;;;13.00;7.28;;;24.10;53.30;;;;;;5095006;28;20031;-66
2021/06/14 08:33:18;;;;;;;11.60;7.72;;;24.10;53.10;;;;;;5094789;28;20028;-66
2021/06/14 08:35:44;;;;;;;12.75;7.20;;;24.10;53.30;;;;;;5094705;28;20526;-66
2021/06/14 08:38:09;;;;;;;14.60;8.00;;;24.20;53.40;;;;;;5095041;28;20026;-66
2021/06/14 08:40:36;;;;;;;14.57;7.90;;;24.30;53.10;;;;;;5094704;28;20431;-66
2021/06/14 08:43:04;;;;;;;12.43;7.60;;;24.50;53.20;;;;;;5094743;28;20115;-66
2021/06/14 08:45:32;;;;;;;12.82;7.65;;;24.50;52.60;;;;;;5094506;28;20439;-66
2021/06/14 08:47:58;;;;;;;12.68;6.80;;;24.60;52.70;;;;;;5094540;28;20473;-66
2021/06/14 08:50:25;;;;;;;10.35;6.85;;;24.70;51.70;;;;;;5094350;28;20043;-66
2021/06/14 08:52:51;;;;;;;10.32;6.18;;;24.80;50.80;;;;;;5094429;28;20114;-66
2021/06/14 08:55:17;;;;;;;11.50;6.63;;;24.80;49.70;;;;;;5092377;28;20036;-66
2021/06/14 08:57:44;;;;;;;11.68;5.90;;;24.80;50.10;;;;;;5094728;28;20440;-66
2021/06/14 09:00:17;;;;;;;12.82;6.00;;;24.80;49.40;;;;;;5094203;28;20028;-67
2021/06/14 09:02:45;;;;;;;9.45;5.55;;;24.90;48.70;;;;;;5094259;28;20513;-66
2021/06/14 09:05:12;;;;;;;12.63;5.55;;;25.00;49.60;;;;;;5094171;28;20586;-66
2021/06/14 09:07:39;;;;;;;11.55;5.20;;;25.10;48.50;;;;;;5094464;28;20106;-66
2021/06/14 09:10:06;;;;;;;12.65;5.72;;;25.20;49.00;;;;;;5093967;28;20028;-66
2021/06/14 09:12:41;;;;;;;11.07;5.38;;;25.30;48.30;;;;;;5075925;28;20024;-66
2021/06/14 09:15:12;;;;;;;12.27;4.60;;;25.30;48.50;;;;;;5088828;28;20039;-66
2021/06/14 09:17:38;;;;;;;8.80;4.28;;;25.40;48.00;;;;;;5093989;28;20103;-66
2021/06/14 09:20:13;;;;;;;11.80;4.45;;;25.50;47.80;;;;;;5093913;28;20028;-66
2021/06/14 09:22:38;;;;;;;7.68;4.38;;;25.60;47.90;;;;;;5094010;28;20031;-66
2021/06/14 09:25:10;;;;;;;7.47;3.88;;;25.60;47.60;;;;;;5093747;28;20028;-66
2021/06/14 09:27:39;;;;;;;;;;;25.80;46.90;;;;;;5074230;28;20111;-66
2021/06/14 09:30:21;;;;;;;8.77;3.47;;;25.80;45.40;;;;;;5055307;28;20323;-66
2021/06/14 09:32:51;;;;;;;7.22;3.70;;;25.80;44.50;;;;;;5073366;28;20390;-66
2021/06/14 09:35:19;;;;;;;5.63;2.88;;;25.60;44.70;;;;;;5073361;28;20024;-67
2021/06/14 09:38:02;;;;;;;6.18;3.20;;;25.70;45.50;;;;;;5083559;28;20032;-66
2021/06/14 09:40:58;;;;;;;8.55;3.63;;;25.80;44.20;;;;;;5093430;28;20027;-66
2021/06/14 09:43:30;;;;;;;10.52;4.03;;;25.80;44.20;;;;;;5091018;28;20032;-66
2021/06/14 09:46:02;;;;;;;;;;;25.70;43.80;;;;;;5093860;28;20024;-66
2021/06/14 09:48:29;;;;;;;8.45;3.65;;;25.60;44.40;;;;;;5093592;28;20361;-67
2021/06/14 09:50:57;;;;;;;9.77;3.88;;;25.70;44.20;;;;;;5091789;28;20036;-66
2021/06/14 09:53:35;;;;;;;6.05;2.75;;;25.90;45.40;;;;;;5093267;28;20462;-66
2021/06/14 09:56:15;;;;;;;7.32;3.63;;;26.00;45.30;;;;;;5093345;28;20032;-66
2021/06/14 09:58:42;;;;;;;6.38;2.90;;;26.20;44.60;;;;;;5093363;28;20030;-66
2021/06/14 10:01:08;;;;;;;8.05;3.13;;;26.30;45.00;;;;;;5093063;28;20035;-67
2021/06/14 10:03:45;;;;;;;10.25;3.33;;;26.40;44.70;;;;;;5093039;28;20039;-66
2021/06/14 10:06:12;;;;;;;9.32;2.97;;;26.60;44.30;;;;;;5092271;28;20027;-66
2021/06/14 10:08:38;;;;;;;7.85;2.83;;;26.60;44.10;;;;;;5093164;28;20359;-66
2021/06/14 10:11:09;;;;;;;12.73;3.97;;;26.70;44.70;;;;;;5093011;28;20020;-67
2021/06/14 10:13:40;;;;;;;12.80;3.22;;;26.80;43.60;;;;;;5092848;28;20378;-66
2021/06/14 10:16:15;;;;;;;6.37;2.53;;;26.70;43.70;;;;;;5092738;28;20106;-66
2021/06/14 10:18:51;;;;;;;7.72;2.63;;;26.70;44.90;;;;;;5092680;28;20074;-66
2021/06/14 10:21:31;;;;;;;6.28;3.03;;;26.80;44.00;;;;;;5091636;28;20024;-66
2021/06/14 10:24:01;;;;;;;7.80;3.38;;;26.80;43.70;;;;;;5074599;28;20085;-66
2021/06/14 10:26:29;;;;;;;12.50;3.72;;;26.80;44.10;;;;;;5092587;28;20040;-66
2021/06/14 10:28:55;;;;;;;12.55;3.75;;;26.80;44.00;;;;;;5074736;28;20028;-66
2021/06/14 10:31:23;;;;;;;5.38;2.55;;;26.90;43.80;;;;;;5092704;28;20028;-66
2021/06/14 10:33:50;;;;;;;6.55;2.90;;;26.90;43.90;;;;;;5092637;28;20227;-66
2021/06/14 10:36:20;;;;;;;11.57;3.10;;;26.90;44.10;;;;;;5092589;28;20031;-66
2021/06/14 10:38:47;;;;;;;5.40;2.05;;;27.00;44.70;;;;;;5092690;28;20116;-66
2021/06/14 10:41:13;;;;;;;4.65;1.98;;;27.10;43.70;;;;;;5092502;28;20463;-66
2021/06/14 10:43:39;;;;;;;3.75;2.10;;;27.00;44.00;;;;;;5092880;28;20027;-66
2021/06/14 10:46:08;;;;;;;3.47;1.52;;;27.10;44.60;;;;;;5092481;28;20081;-66
2021/06/14 10:48:35;;;;;;;8.07;2.47;;;27.10;44.40;;;;;;5092835;28;20031;-66
2021/06/14 10:51:03;;;;;;;5.10;1.80;;;27.20;44.20;;;;;;5092511;28;20032;-66
2021/06/14 10:53:31;;;;;;;8.13;2.25;;;27.20;45.10;;;;;;5092108;28;20032;-65
2021/06/14 10:56:01;;;;;;;6.25;1.92;;;27.30;44.40;;;;;;5074427;28;20376;-65
2021/06/14 10:58:30;;;;;;;4.88;1.80;;;27.30;44.40;;;;;;5092359;28;20028;-66
2021/06/14 11:01:00;;;;;;;5.18;1.45;;;27.40;44.10;;;;;;5092728;28;20482;-65
2021/06/14 11:03:36;;;;;;;5.55;1.80;;;27.50;44.00;;;;;;5092657;28;20114;-66
2021/06/14 11:06:02;;;;;;;4.70;1.70;;;27.70;44.10;;;;;;5092177;28;20028;-66
2021/06/14 11:08:30;;;;;;;3.92;1.65;;;27.80;43.90;;;;;;5092379;28;20026;-66
2021/06/14 11:11:00;;;;;;;4.18;1.67;;;27.80;44.60;;;;;;5092001;28;20557;-66
2021/06/14 11:13:26;;;;;;;3.65;1.60;;;27.90;44.80;;;;;;5092215;28;20482;-66
2021/06/14 11:15:55;;;;;;;4.63;1.85;;;28.00;43.70;;;;;;5074303;28;20028;-66
2021/06/14 11:18:29;;;;;;;6.32;1.58;;;28.10;44.30;;;;;;5095445;28;20507;-66
2021/06/14 11:21:13;;;;;;;4.25;1.67;;;28.10;43.70;;;;;;5096149;28;20128;-66
2021/06/14 11:23:42;;;;;;;9.32;2.22;;;28.00;43.50;;;;;;5096111;28;20039;-65
2021/06/14 11:26:09;;;;;;;5.18;1.88;;;28.10;43.10;;;;;;5096169;28;20038;-66
2021/06/14 11:28:43;;;;;;;7.82;2.00;;;28.20;42.90;;;;;;5096188;28;20028;-66
2021/06/14 11:31:29;;;;;;;4.95;1.60;;;28.20;42.70;;;;;;5094547;28;20031;-66
2021/06/14 11:34:05;;;;;;;2.53;1.40;;;28.30;43.30;;;;;;5096165;28;20028;-66
2021/06/14 11:36:34;;;;;;;7.00;1.95;;;28.50;43.00;;;;;;5096399;28;20093;-65
2021/06/14 11:39:15;;;;;;;4.45;1.90;;;28.70;42.80;;;;;;5096074;28;20539;-66
2021/06/14 11:41:41;;;;;;;6.28;1.80;;;28.60;42.90;;;;;;5095756;28;20085;-66
2021/06/14 11:44:30;;;;;;;4.65;1.85;;;28.50;42.40;;;;;;5096056;28;20538;-66
2021/06/14 11:47:00;;;;;;;5.63;1.95;;;28.40;43.30;;;;;;5095889;28;20123;-66
2021/06/14 11:49:45;;;;;;;3.65;1.55;;;28.30;43.30;;;;;;5095719;28;20028;-66
2021/06/14 11:52:27;;;;;;;5.05;2.30;;;28.30;43.10;;;;;;5095627;28;20386;-66
2021/06/14 11:54:57;;;;;;;5.28;1.80;;;28.40;43.50;;;;;;5095651;28;20040;-66
2021/06/14 11:57:37;;;;;;;5.72;2.13;;;28.40;43.30;;;;;;5077202;28;20025;-66
2021/06/14 12:00:33;;;;;;;4.80;1.77;;;28.50;43.10;;;;;;5095885;28;20023;-66
2021/06/14 12:02:59;;;;;;;5.10;1.70;;;28.50;43.30;;;;;;5089784;28;20042;-66
2021/06/14 12:05:32;;;;;;;6.88;1.52;;;28.70;42.80;;;;;;5095546;28;20032;-66
2021/06/14 12:07:59;;;;;;;4.95;1.58;;;28.90;42.50;;;;;;5095552;28;20028;-66
2021/06/14 12:10:25;;;;;;;5.93;1.88;;;29.00;41.70;;;;;;5094871;28;20485;-66
2021/06/14 12:13:11;;;;;;;5.90;1.73;;;29.00;42.50;;;;;;5095015;28;20427;-66
2021/06/14 12:15:38;;;;;;;8.50;2.00;;;29.10;43.00;;;;;;5067733;28;20081;-66
2021/06/14 12:18:04;;;;;;;6.28;2.25;;;29.10;42.70;;;;;;5074801;28;20054;-66
2021/06/14 12:20:33;;;;;;;4.00;2.10;;;29.10;42.10;;;;;;5074879;28;20028;-66
2021/06/14 12:23:01;;;;;;;7.00;2.03;;;29.10;41.90;;;;;;5074882;28;20085;-66
2021/06/14 12:25:28;;;;;;;5.65;1.50;;;28.90;41.60;;;;;;5074609;28;20032;-66
2021/06/14 12:27:58;;;;;;;6.20;1.58;;;28.70;42.30;;;;;;5074664;28;20371;-66
2021/06/14 12:30:26;;;;;;;5.50;2.40;;;28.80;43.40;;;;;;5073685;28;20050;-66
2021/06/14 12:32:52;;;;;;;6.40;2.17;;;28.90;41.80;;;;;;5074615;28;20563;-66
2021/06/14 12:35:17;;;;;;;7.35;2.10;;;28.90;42.50;;;;;;5074691;28;20401;-66
2021/06/14 12:37:43;;;;;;;9.15;2.00;;;28.90;42.30;;;;;;5074427;28;20025;-66
2021/06/14 12:40:12;;;;;;;5.45;1.92;;;28.90;42.70;;;;;;5074376;28;20020;-67
2021/06/14 12:42:39;;;;;;;5.38;1.92;;;29.00;43.00;;;;;;5078446;28;20023;-67
2021/06/14 12:45:12;;;;;;;9.18;2.30;;;29.20;41.80;;;;;;5094614;28;20100;-66
2021/06/14 12:47:44;;;;;;;6.63;2.35;;;29.30;41.50;;;;;;5094690;28;20077;-66
2021/06/14 12:50:16;;;;;;;10.35;2.25;;;29.30;41.60;;;;;;5094438;28;20024;-66